In Rescue
 
Open Full Screen Window  High Contrast Mode
Wind Gusting 20 knots
14
May 13, 2021 10:59 AM CDT
Weather Information
Wind Direction
  220 °
Wind Speed
  14 kt (16 mph)
Wind Gust
  20 kt (23 mph)
Altimeter
30.24 in
Visibility
10 SM
Temperature
21° C
70° F
Dewpoint
01° C
34° F
Humidity
27%
1hr Rain Fall
00.00 in.
24hr Rain Fall
00.00 in.
Sky Condition
Clear
VFR

METAR KAQP 131559Z AUTO 22014G20KT 10SM CLR 21/01 A3024 RMK AO2

FAA Disclaimer: The data displayed is for advisory purposes only and is not to be used for flight planning or operations.